createdAt,value
2023-02-11T00:01:32.687Z,9.00
2023-02-11T00:04:01.971Z,9.52
2023-02-11T00:06:31.412Z,13.00
2023-02-11T00:09:01.343Z,10.90
2023-02-11T00:11:32.794Z,8.75
2023-02-11T00:14:02.902Z,10.95
2023-02-11T00:16:32.596Z,10.00
2023-02-11T00:19:01.180Z,9.20
2023-02-11T00:21:29.854Z,11.07
2023-02-11T00:24:00.224Z,10.27
2023-02-11T00:26:32.419Z,9.02
2023-02-11T00:29:01.659Z,9.93
2023-02-11T00:31:32.534Z,13.07
2023-02-11T00:34:00.588Z,10.25
2023-02-11T00:36:29.766Z,9.88
2023-02-11T00:38:58.516Z,10.40
2023-02-11T00:41:28.504Z,14.50
2023-02-11T00:43:56.440Z,9.23
2023-02-11T00:46:24.623Z,9.85
2023-02-11T00:48:55.221Z,12.68
2023-02-11T00:51:23.718Z,12.20
2023-02-11T00:53:51.572Z,16.70
2023-02-11T00:56:19.264Z,20.88
2023-02-11T00:58:47.506Z,18.15
2023-02-11T01:01:15.586Z,15.85
2023-02-11T01:03:44.016Z,15.13
2023-02-11T01:06:12.016Z,12.35
2023-02-11T01:08:40.224Z,13.57
2023-02-11T01:11:14.827Z,11.52
2023-02-11T01:13:46.897Z,10.70
2023-02-11T01:16:16.619Z,9.52
2023-02-11T01:18:46.385Z,9.50
2023-02-11T01:21:14.961Z,10.30
2023-02-11T01:23:44.336Z,9.82
2023-02-11T01:26:12.904Z,9.60
2023-02-11T01:28:40.835Z,11.43
2023-02-11T01:31:08.897Z,10.07
2023-02-11T01:33:36.817Z,11.50
2023-02-11T01:36:08.510Z,12.63
2023-02-11T01:38:36.758Z,10.85
2023-02-11T01:41:07.245Z,11.35
2023-02-11T01:43:42.174Z,12.20
2023-02-11T01:46:31.964Z,11.38
2023-02-11T01:49:06.391Z,12.27
2023-02-11T01:51:37.402Z,11.32
2023-02-11T01:54:27.285Z,14.25
2023-02-11T01:57:17.963Z,11.23
2023-02-11T01:59:57.410Z,11.45
2023-02-11T02:02:53.006Z,10.93
2023-02-11T02:05:43.370Z,11.88
2023-02-11T02:08:14.302Z,11.75
2023-02-11T02:10:45.250Z,11.48
2023-02-11T02:13:13.219Z,10.85
2023-02-11T02:15:55.267Z,10.75
2023-02-11T02:18:42.713Z,9.25
2023-02-11T02:24:21.193Z,9.80
2023-02-11T02:27:01.254Z,7.90
2023-02-11T02:30:02.520Z,8.65
2023-02-11T02:32:39.442Z,8.70
2023-02-11T02:35:29.757Z,8.43
2023-02-11T02:38:00.429Z,8.15
2023-02-11T02:40:40.764Z,8.73
2023-02-11T02:43:10.539Z,7.65
2023-02-11T02:45:38.251Z,7.50
2023-02-11T02:48:07.394Z,7.78
2023-02-11T02:50:37.870Z,8.27
2023-02-11T02:53:31.387Z,8.02
2023-02-11T02:56:02.186Z,9.38
2023-02-11T02:58:38.951Z,8.30
2023-02-11T03:01:28.757Z,8.00
2023-02-11T03:04:21.832Z,8.48
2023-02-11T03:07:04.317Z,11.35
2023-02-11T03:09:55.300Z,12.68
2023-02-11T03:12:25.253Z,12.60
2023-02-11T03:14:53.156Z,16.48
2023-02-11T03:17:22.095Z,16.65
2023-02-11T03:19:51.296Z,15.88
2023-02-11T03:22:35.212Z,17.10
2023-02-11T03:25:03.696Z,12.38
2023-02-11T03:27:40.854Z,11.57
2023-02-11T03:30:18.562Z,12.35
2023-02-11T03:33:30.558Z,12.13
2023-02-11T03:36:09.112Z,11.90
2023-02-11T03:38:44.837Z,12.00
2023-02-11T03:41:16.496Z,10.00
2023-02-11T03:43:52.543Z,10.20
2023-02-11T03:46:26.136Z,9.52
2023-02-11T03:48:59.484Z,11.13
2023-02-11T03:51:30.519Z,7.93
2023-02-11T03:54:01.531Z,8.63
2023-02-11T03:56:33.375Z,9.00
2023-02-11T03:59:01.568Z,8.10
2023-02-11T04:01:29.609Z,9.40
2023-02-11T04:03:57.348Z,8.60
2023-02-11T04:06:25.463Z,7.88
2023-02-11T04:08:53.365Z,8.63
2023-02-11T04:11:21.229Z,8.23
2023-02-11T04:13:49.035Z,7.82
2023-02-11T04:16:16.853Z,8.95
2023-02-11T04:18:44.704Z,9.60
2023-02-11T04:21:12.629Z,9.20
2023-02-11T04:23:40.342Z,8.55
2023-02-11T04:26:08.265Z,7.20
2023-02-11T04:28:36.646Z,7.15
2023-02-11T04:31:04.772Z,7.88
2023-02-11T04:33:32.978Z,9.15
2023-02-11T04:36:00.831Z,8.02
2023-02-11T04:38:28.575Z,8.00
2023-02-11T04:40:58.309Z,7.22
2023-02-11T04:43:26.575Z,8.20
2023-02-11T04:45:58.784Z,8.13
2023-02-11T04:48:27.243Z,7.90
2023-02-11T04:50:55.267Z,8.13
2023-02-11T04:53:24.041Z,9.35
2023-02-11T04:55:53.092Z,7.95
2023-02-11T04:58:21.397Z,7.22
2023-02-11T05:00:49.092Z,8.02
2023-02-11T05:03:17.272Z,8.30
2023-02-11T05:05:45.097Z,8.38
2023-02-11T05:08:13.564Z,7.93
2023-02-11T05:10:45.828Z,7.63
2023-02-11T05:13:13.685Z,6.80
2023-02-11T05:15:41.816Z,8.57
2023-02-11T05:18:10.784Z,8.25
2023-02-11T05:20:39.593Z,9.85
2023-02-11T05:23:07.485Z,6.80
2023-02-11T05:25:35.535Z,8.38
2023-02-11T05:28:05.815Z,9.27
2023-02-11T05:30:34.091Z,7.30
2023-02-11T05:33:01.829Z,9.20
2023-02-11T05:35:29.612Z,7.30
2023-02-11T05:37:57.475Z,9.50
2023-02-11T05:40:25.122Z,8.75
2023-02-11T05:42:53.065Z,8.38
2023-02-11T05:45:20.815Z,8.38
2023-02-11T05:47:48.801Z,8.68
2023-02-11T05:50:16.670Z,8.20
2023-02-11T05:52:45.001Z,7.63
2023-02-11T05:55:12.792Z,8.15
2023-02-11T05:57:40.678Z,8.10
2023-02-11T06:00:09.512Z,8.70
2023-02-11T06:02:43.318Z,10.00
2023-02-11T06:05:10.996Z,8.02
2023-02-11T06:07:39.098Z,8.88
2023-02-11T06:10:07.664Z,7.75
2023-02-11T06:12:37.076Z,8.27
2023-02-11T06:15:06.471Z,7.13
2023-02-11T06:17:34.352Z,7.70
2023-02-11T06:20:03.260Z,9.25
2023-02-11T06:22:31.537Z,8.05
2023-02-11T06:25:02.112Z,8.98
2023-02-11T06:27:31.512Z,7.57
2023-02-11T06:29:59.965Z,9.18
2023-02-11T06:32:43.431Z,7.25
2023-02-11T06:35:12.693Z,8.13
2023-02-11T06:37:41.890Z,7.03
2023-02-11T06:40:11.848Z,7.30
2023-02-11T06:42:39.812Z,9.13
2023-02-11T06:45:10.894Z,7.43
2023-02-11T06:47:42.398Z,9.52
2023-02-11T06:50:14.037Z,8.30
2023-02-11T06:52:41.898Z,9.68
2023-02-11T06:55:09.978Z,11.35
2023-02-11T06:57:38.135Z,9.38
2023-02-11T07:00:06.836Z,8.77
2023-02-11T07:02:34.796Z,10.18
2023-02-11T07:05:02.764Z,9.02
2023-02-11T07:07:34.278Z,9.23
2023-02-11T07:10:04.185Z,8.13
2023-02-11T07:12:32.254Z,8.82
2023-02-11T07:15:00.345Z,11.05
2023-02-11T07:17:28.000Z,9.77
2023-02-11T07:19:56.038Z,10.23
2023-02-11T07:22:23.912Z,13.93
2023-02-11T07:24:51.746Z,15.68
2023-02-11T07:27:19.898Z,11.57
2023-02-11T07:29:48.840Z,11.15
2023-02-11T07:32:17.100Z,10.65
2023-02-11T07:34:45.605Z,9.38
2023-02-11T07:37:13.325Z,11.75
2023-02-11T07:39:43.777Z,11.02
2023-02-11T07:42:11.656Z,13.10
2023-02-11T07:44:39.694Z,13.68
2023-02-11T07:47:07.719Z,16.58
2023-02-11T07:49:35.473Z,14.95
2023-02-11T07:52:03.282Z,14.38
2023-02-11T07:54:30.929Z,9.30
2023-02-11T07:56:59.066Z,14.18
2023-02-11T07:59:27.597Z,11.40
2023-02-11T08:01:55.487Z,12.20
2023-02-11T08:04:23.656Z,12.77
2023-02-11T08:06:52.928Z,11.95
2023-02-11T08:09:20.728Z,12.32
2023-02-11T08:11:48.348Z,9.75
2023-02-11T08:14:16.187Z,11.32
2023-02-11T08:16:44.442Z,11.88
2023-02-11T08:19:15.784Z,15.32
2023-02-11T08:21:44.294Z,11.90
2023-02-11T08:24:12.526Z,11.40
2023-02-11T08:26:40.552Z,11.88
2023-02-11T08:29:11.705Z,16.73
2023-02-11T08:31:42.665Z,28.42
2023-02-11T08:34:11.786Z,20.80
2023-02-11T08:36:42.294Z,18.98
2023-02-11T08:39:19.683Z,18.08
2023-02-11T08:41:57.279Z,14.52
2023-02-11T08:44:25.593Z,17.27
2023-02-11T08:46:54.037Z,11.18
2023-02-11T08:49:22.307Z,11.68
2023-02-11T08:51:51.086Z,12.27
2023-02-11T08:54:19.780Z,12.38
2023-02-11T08:56:51.633Z,12.73
2023-02-11T08:59:19.379Z,15.10
2023-02-11T09:01:48.035Z,13.75
2023-02-11T09:04:15.911Z,12.90
2023-02-11T09:06:44.010Z,13.15
2023-02-11T09:09:14.607Z,12.88
2023-02-11T09:11:44.151Z,14.45
2023-02-11T09:14:19.785Z,13.77
2023-02-11T09:16:48.500Z,10.57
2023-02-11T09:19:17.295Z,14.27
2023-02-11T09:21:45.127Z,12.23
2023-02-11T09:24:13.087Z,12.27
2023-02-11T09:26:43.438Z,11.48
2023-02-11T09:29:11.781Z,11.57
2023-02-11T09:31:39.981Z,11.52
2023-02-11T09:34:07.911Z,12.43
2023-02-11T09:36:43.529Z,14.90
2023-02-11T09:39:18.030Z,13.27
2023-02-11T09:42:10.121Z,14.68
2023-02-11T09:44:39.712Z,264.45
2023-02-11T09:47:13.514Z,260.33
2023-02-11T09:49:46.816Z,273.05
2023-02-11T09:52:40.260Z,123.85
2023-02-11T09:55:39.973Z,67.38
2023-02-11T09:58:22.935Z,45.63
2023-02-11T10:01:28.296Z,35.33
2023-02-11T10:04:14.152Z,36.22
2023-02-11T10:07:19.435Z,32.67
2023-02-11T10:10:00.536Z,20.67
2023-02-11T10:12:28.122Z,11.35
2023-02-11T10:15:02.074Z,18.30
2023-02-11T10:17:46.491Z,15.23
2023-02-11T10:20:31.348Z,16.77
2023-02-11T10:23:02.473Z,15.88
2023-02-11T10:25:45.456Z,18.45
2023-02-11T10:28:20.103Z,15.07
2023-02-11T10:31:16.032Z,14.32
2023-02-11T10:33:58.671Z,16.90
2023-02-11T10:36:34.250Z,15.88
2023-02-11T10:39:11.920Z,17.55
2023-02-11T10:41:45.937Z,17.52
2023-02-11T10:44:27.316Z,14.55
2023-02-11T10:46:56.620Z,20.23
2023-02-11T10:49:41.656Z,20.73
2023-02-11T10:52:21.672Z,17.42
2023-02-11T10:55:14.557Z,13.35
2023-02-11T10:57:50.146Z,14.90
2023-02-11T11:00:17.923Z,15.48
2023-02-11T11:02:52.541Z,16.08
2023-02-11T11:05:28.854Z,12.85
2023-02-11T11:08:03.052Z,14.73
2023-02-11T11:10:43.476Z,16.40
2023-02-11T11:13:23.630Z,17.80
2023-02-11T11:16:10.312Z,16.60
2023-02-11T11:18:39.294Z,15.07
2023-02-11T11:21:16.383Z,15.63
2023-02-11T11:24:02.674Z,14.73
2023-02-11T11:26:42.640Z,12.10
2023-02-11T11:29:21.956Z,15.35
2023-02-11T11:31:54.006Z,16.30
2023-02-11T11:34:38.880Z,25.23
2023-02-11T11:37:28.138Z,28.88
2023-02-11T11:40:04.972Z,35.88
2023-02-11T11:42:35.652Z,35.70
2023-02-11T11:45:24.850Z,32.85
2023-02-11T11:48:34.585Z,33.40
2023-02-11T11:51:06.350Z,32.70
2023-02-11T11:54:01.844Z,27.77
2023-02-11T11:56:34.141Z,30.67
2023-02-11T11:59:11.022Z,30.27
2023-02-11T12:01:50.141Z,29.45
2023-02-11T12:04:49.150Z,24.27
2023-02-11T12:07:29.755Z,23.40
2023-02-11T12:10:16.575Z,21.88
2023-02-11T12:12:53.552Z,21.63
2023-02-11T12:15:24.115Z,31.17
2023-02-11T12:20:15.282Z,24.63
2023-02-11T12:22:55.120Z,37.75
2023-02-11T12:25:28.390Z,42.92
2023-02-11T12:28:20.480Z,39.85
2023-02-11T12:31:15.784Z,30.08
2023-02-11T12:34:02.221Z,39.13
2023-02-11T12:36:41.223Z,31.85
2023-02-11T12:39:38.441Z,27.98
2023-02-11T12:42:41.167Z,29.17
2023-02-11T12:45:12.184Z,36.97
2023-02-11T12:48:17.533Z,27.25
2023-02-11T12:51:03.991Z,23.17
2023-02-11T12:54:09.536Z,23.70
2023-02-11T12:56:40.423Z,31.85
2023-02-11T12:59:17.883Z,32.70
2023-02-11T13:01:47.971Z,27.48
2023-02-11T13:04:25.143Z,19.33
2023-02-11T13:06:59.194Z,19.50
2023-02-11T13:09:38.756Z,19.50
2023-02-11T13:12:26.445Z,20.30
2023-02-11T13:15:00.534Z,21.13
2023-02-11T13:17:39.096Z,19.80
2023-02-11T13:20:37.196Z,23.90
2023-02-11T13:23:29.974Z,22.67
2023-02-11T13:26:17.032Z,25.42
2023-02-11T13:29:17.208Z,24.67
2023-02-11T13:31:57.558Z,29.25
2023-02-11T13:34:45.762Z,26.75
2023-02-11T13:37:29.939Z,25.90
2023-02-11T13:39:58.037Z,29.45
2023-02-11T13:42:27.306Z,27.52
2023-02-11T13:44:56.621Z,25.85
2023-02-11T13:47:37.455Z,24.58
2023-02-11T13:50:10.830Z,27.73
2023-02-11T13:52:39.789Z,26.88
2023-02-11T13:55:24.457Z,29.30
2023-02-11T13:58:14.118Z,25.20
2023-02-11T14:00:51.496Z,24.83
2023-02-11T14:03:57.930Z,28.08
2023-02-11T14:06:47.361Z,27.00
2023-02-11T14:09:17.494Z,29.45
2023-02-11T14:11:52.698Z,26.85
2023-02-11T14:14:31.490Z,25.13
2023-02-11T14:17:00.927Z,32.03
2023-02-11T14:19:39.214Z,21.33
2023-02-11T14:22:20.197Z,19.30
2023-02-11T14:24:55.059Z,17.10
2023-02-11T14:27:23.718Z,21.30
2023-02-11T14:30:01.845Z,22.58
2023-02-11T14:32:50.340Z,20.20
2023-02-11T14:38:23.251Z,18.73
2023-02-11T14:41:09.815Z,17.90
2023-02-11T14:43:47.540Z,17.08
2023-02-11T14:46:23.219Z,17.40
2023-02-11T14:48:55.460Z,15.15
2023-02-11T14:51:31.442Z,15.40
2023-02-11T14:54:04.990Z,17.88
2023-02-11T14:56:34.746Z,14.90
2023-02-11T14:59:03.810Z,19.40
2023-02-11T15:01:32.752Z,22.83
2023-02-11T15:04:07.671Z,22.65
2023-02-11T15:06:42.477Z,25.27
2023-02-11T15:09:18.807Z,24.48
2023-02-11T15:11:51.738Z,21.80
2023-02-11T15:14:35.734Z,22.00
2023-02-11T15:17:09.226Z,17.67
2023-02-11T15:19:41.883Z,18.75
2023-02-11T15:22:20.398Z,16.48
2023-02-11T15:25:11.652Z,17.27
2023-02-11T15:27:45.173Z,16.88
2023-02-11T15:30:24.002Z,16.77
2023-02-11T15:33:01.098Z,15.32
2023-02-11T15:35:32.780Z,13.75
2023-02-11T15:38:01.719Z,15.52
2023-02-11T15:40:35.329Z,13.45
2023-02-11T15:43:10.132Z,14.32
2023-02-11T15:45:55.253Z,21.83
2023-02-11T15:48:27.220Z,18.85
2023-02-11T15:50:59.491Z,19.05
2023-02-11T15:53:37.678Z,17.42
2023-02-11T15:56:30.689Z,16.98
2023-02-11T15:59:01.397Z,14.57
2023-02-11T16:01:38.163Z,11.95
2023-02-11T16:04:06.652Z,9.57
2023-02-11T16:06:47.652Z,9.20
2023-02-11T16:09:15.694Z,10.07
2023-02-11T16:11:46.716Z,8.93
2023-02-11T16:14:29.596Z,7.07
2023-02-11T16:17:02.766Z,7.35
2023-02-11T16:19:33.547Z,8.05
2023-02-11T16:22:08.471Z,5.50
2023-02-11T16:24:38.948Z,6.57
2023-02-11T16:27:18.309Z,7.72
2023-02-11T16:29:48.850Z,6.53
2023-02-11T16:32:18.470Z,6.18
2023-02-11T16:34:47.133Z,4.97
2023-02-11T16:37:15.203Z,7.10
2023-02-11T16:39:43.539Z,7.55
2023-02-11T16:42:12.583Z,6.22
2023-02-11T16:44:40.664Z,6.30
2023-02-11T16:47:23.748Z,8.50
2023-02-11T16:49:52.008Z,7.88
2023-02-11T16:52:22.817Z,6.45
2023-02-11T16:54:51.192Z,5.82
2023-02-11T16:57:22.298Z,7.18
2023-02-11T16:59:50.785Z,6.00
2023-02-11T17:02:30.652Z,5.30
2023-02-11T17:05:01.297Z,6.50
2023-02-11T17:07:29.865Z,8.60
2023-02-11T17:09:58.987Z,9.00
2023-02-11T17:12:27.128Z,6.63
2023-02-11T17:14:59.225Z,8.50
2023-02-11T17:17:26.989Z,5.57
2023-02-11T17:19:56.146Z,6.43
2023-02-11T17:22:23.978Z,7.88
2023-02-11T17:24:51.830Z,4.68
2023-02-11T17:27:20.335Z,7.95
2023-02-11T17:29:48.159Z,5.97
2023-02-11T17:32:16.074Z,8.70
2023-02-11T17:34:44.048Z,6.45
2023-02-11T17:37:11.976Z,7.90
2023-02-11T17:39:42.737Z,13.18
2023-02-11T17:42:11.995Z,4.20
2023-02-11T17:44:39.767Z,5.25
2023-02-11T17:47:08.073Z,5.28
2023-02-11T17:49:36.445Z,5.28
2023-02-11T17:52:04.509Z,6.07
2023-02-11T17:54:34.539Z,5.82
2023-02-11T17:57:02.995Z,4.68
2023-02-11T17:59:35.617Z,6.45
2023-02-11T18:02:04.572Z,4.55
2023-02-11T18:04:33.028Z,5.20
2023-02-11T18:07:00.986Z,5.13
2023-02-11T18:09:28.876Z,6.28
2023-02-11T18:11:58.518Z,7.18
2023-02-11T18:14:26.760Z,7.47
2023-02-11T18:16:55.065Z,6.35
2023-02-11T18:19:23.209Z,4.88
2023-02-11T18:21:51.673Z,6.57
2023-02-11T18:24:19.546Z,9.15
2023-02-11T18:26:47.510Z,9.95
2023-02-11T18:29:15.476Z,9.60
2023-02-11T18:31:43.547Z,9.00
2023-02-11T18:34:12.234Z,8.85
2023-02-11T18:36:40.107Z,9.88
2023-02-11T18:39:07.960Z,5.97
2023-02-11T18:41:36.044Z,8.35
2023-02-11T18:44:05.194Z,7.00
2023-02-11T18:46:33.185Z,7.80
2023-02-11T18:49:01.437Z,6.55
2023-02-11T18:51:31.980Z,6.78
2023-02-11T18:54:00.035Z,7.85
2023-02-11T18:56:28.188Z,8.15
2023-02-11T18:58:57.333Z,7.68
2023-02-11T19:01:27.596Z,9.15
2023-02-11T19:03:57.789Z,8.48
2023-02-11T19:06:28.210Z,9.07
2023-02-11T19:08:59.973Z,10.60
2023-02-11T19:11:48.909Z,7.28
2023-02-11T19:14:20.196Z,9.00
2023-02-11T19:16:50.769Z,8.93
2023-02-11T19:19:19.303Z,8.88
2023-02-11T19:21:47.704Z,8.25
2023-02-11T19:24:19.010Z,8.48
2023-02-11T19:26:48.126Z,10.00
2023-02-11T19:29:16.742Z,8.13
2023-02-11T19:31:45.042Z,12.55
2023-02-11T19:34:16.344Z,10.45
2023-02-11T19:36:44.417Z,10.68
2023-02-11T19:39:13.022Z,9.60
2023-02-11T19:41:41.030Z,8.85
2023-02-11T19:44:09.745Z,9.02
2023-02-11T19:46:41.117Z,7.88
2023-02-11T19:49:11.289Z,8.18
2023-02-11T19:51:39.723Z,9.43
2023-02-11T19:54:08.062Z,11.18
2023-02-11T19:56:38.054Z,11.30
2023-02-11T19:59:08.927Z,11.65
2023-02-11T20:01:37.283Z,10.05
2023-02-11T20:04:05.407Z,10.90
2023-02-11T20:06:34.590Z,9.35
2023-02-11T20:09:06.892Z,10.18
2023-02-11T20:11:37.503Z,20.60
2023-02-11T20:14:06.938Z,46.33
2023-02-11T20:16:47.379Z,67.95
2023-02-11T20:19:22.215Z,55.80
2023-02-11T20:21:53.827Z,43.95
2023-02-11T20:24:23.769Z,30.80
2023-02-11T20:26:56.069Z,24.17
2023-02-11T20:29:25.848Z,19.42
2023-02-11T20:31:54.419Z,15.00
2023-02-11T20:34:22.586Z,12.63
2023-02-11T20:36:53.676Z,17.42
2023-02-11T20:39:23.955Z,14.70
2023-02-11T20:41:54.255Z,16.63
2023-02-11T20:44:23.567Z,14.07
2023-02-11T20:46:54.590Z,13.07
2023-02-11T20:49:25.031Z,14.15
2023-02-11T20:51:54.095Z,14.13
2023-02-11T20:54:23.955Z,10.77
2023-02-11T20:56:53.866Z,12.57
2023-02-11T20:59:22.271Z,10.82
2023-02-11T21:01:55.732Z,12.43
2023-02-11T21:04:26.720Z,11.23
2023-02-11T21:06:57.997Z,14.95
2023-02-11T21:09:29.075Z,12.18
2023-02-11T21:11:57.431Z,13.85
2023-02-11T21:14:26.332Z,13.13
2023-02-11T21:16:54.293Z,14.35
2023-02-11T21:19:22.088Z,10.23
2023-02-11T21:21:50.161Z,11.57
2023-02-11T21:24:18.391Z,12.27
2023-02-11T21:26:46.464Z,13.65
2023-02-11T21:29:14.548Z,14.38
2023-02-11T21:31:42.879Z,15.50
2023-02-11T21:34:10.999Z,14.88
2023-02-11T21:36:38.759Z,14.25
2023-02-11T21:39:07.153Z,16.00
2023-02-11T21:41:35.397Z,15.07
2023-02-11T21:44:03.250Z,17.45
2023-02-11T21:46:32.139Z,16.08
2023-02-11T21:49:00.627Z,18.40
2023-02-11T21:51:28.889Z,16.52
2023-02-11T21:54:03.047Z,14.95
2023-02-11T21:56:32.380Z,17.10
2023-02-11T21:59:01.126Z,17.10
2023-02-11T22:01:31.935Z,16.73
2023-02-11T22:04:00.344Z,17.55
2023-02-11T22:06:31.357Z,17.80
2023-02-11T22:09:02.520Z,17.30
2023-02-11T22:11:30.465Z,18.35
2023-02-11T22:13:59.271Z,15.98
2023-02-11T22:16:28.673Z,18.85
2023-02-11T22:18:59.278Z,17.00
2023-02-11T22:21:29.671Z,15.13
2023-02-11T22:23:57.563Z,16.95
2023-02-11T22:26:27.943Z,15.95
2023-02-11T22:28:56.543Z,15.98
2023-02-11T22:31:28.481Z,16.05
2023-02-11T22:33:56.479Z,15.68
2023-02-11T22:36:29.755Z,17.05
2023-02-11T22:39:01.930Z,15.50
2023-02-11T22:41:30.246Z,14.43
2023-02-11T22:43:58.374Z,16.20
2023-02-11T22:46:27.014Z,15.80
2023-02-11T22:48:55.090Z,16.17
2023-02-11T22:51:26.370Z,15.60
2023-02-11T22:54:05.644Z,14.20
2023-02-11T22:56:35.167Z,17.77
2023-02-11T22:59:06.243Z,13.77
2023-02-11T23:01:34.459Z,15.65
2023-02-11T23:04:04.590Z,13.25
2023-02-11T23:06:33.241Z,15.43
2023-02-11T23:09:02.869Z,15.05
2023-02-11T23:11:31.716Z,20.35
2023-02-11T23:14:00.737Z,17.10
2023-02-11T23:16:31.663Z,18.83
2023-02-11T23:19:01.862Z,16.83
2023-02-11T23:21:31.385Z,15.32
2023-02-11T23:24:14.449Z,13.48
2023-02-11T23:26:43.530Z,11.85
2023-02-11T23:29:11.672Z,14.77
2023-02-11T23:31:43.533Z,13.15
2023-02-11T23:34:11.998Z,14.90
2023-02-11T23:36:39.762Z,11.90
2023-02-11T23:39:07.662Z,11.57
2023-02-11T23:41:35.687Z,15.85
2023-02-11T23:44:03.649Z,11.85
2023-02-11T23:46:31.494Z,12.43
2023-02-11T23:48:59.421Z,13.02
2023-02-11T23:51:27.238Z,11.68
2023-02-11T23:53:56.303Z,12.00
2023-02-11T23:56:27.666Z,12.25
2023-02-11T23:58:59.061Z,11.52
